Time;durP1;ratioP1;P1;durP2;ratioP2;P2;SDS_P1;SDS_P2;PMS_P1;PMS_P2;Temp;Humidity;BMP_temperature;BMP_pressure;BME280_temperature;BME280_humidity;BME280_pressure;Samples;Min_cycle;Max_cycle;Signal;HPM_P1;HPM_P2
2022/03/07 00:01:54;;;;;;;16.38;8.07;;;;;;;;;;5087270;28;20028;-48
2022/03/07 00:04:20;;;;;;;14.82;6.85;;;;;;;;;;5088880;28;20024;-48
2022/03/07 00:06:47;;;;;;;10.93;5.75;;;;;;;;;;5092184;28;20099;-49
2022/03/07 00:09:13;;;;;;;10.95;6.03;;;;;;;;;;5084993;28;20029;-48
2022/03/07 00:11:39;;;;;;;6.68;4.80;;;;;;;;;;5093197;28;20023;-49
2022/03/07 00:14:06;;;;;;;12.13;5.15;;;;;;;;;;5081990;28;20073;-48
2022/03/07 00:16:32;;;;;;;9.55;4.28;;;;;;;;;;5093479;28;20546;-49
2022/03/07 00:18:58;;;;;;;7.20;4.63;;;;;;;;;;5093427;28;20020;-51
2022/03/07 00:21:24;;;;;;;7.90;4.78;;;;;;;;;;5092316;28;20067;-49
2022/03/07 00:23:50;;;;;;;9.48;5.03;;;;;;;;;;5080468;28;20029;-49
2022/03/07 00:26:17;;;;;;;7.05;3.97;;;;;;;;;;5081564;28;20020;-53
2022/03/07 00:28:44;;;;;;;9.05;5.68;;;;;;;;;;5093098;28;20103;-54
2022/03/07 00:31:10;;;;;;;8.57;5.20;;;;;;;;;;5092572;28;20486;-48
2022/03/07 00:33:36;;;;;;;11.80;5.03;;;;;;;;;;5079603;28;20032;-52
2022/03/07 00:36:02;;;;;;;11.73;5.28;;;;;;;;;;5080596;28;20035;-51
2022/03/07 00:38:28;;;;;;;7.82;5.05;;;;;;;;;;5081522;28;20031;-48
2022/03/07 00:40:54;;;;;;;8.52;4.53;;;;;;;;;;5089597;28;20081;-50
2022/03/07 00:43:21;;;;;;;9.93;4.93;;;;;;;;;;5092284;28;20024;-48
2022/03/07 00:45:47;;;;;;;8.35;4.93;;;;;;;;;;5092618;28;20024;-49
2022/03/07 00:48:13;;;;;;;7.30;4.53;;;;;;;;;;5083163;28;20024;-50
2022/03/07 00:50:42;;;;;;;8.80;5.13;;;;;;;;;;5087748;28;20081;-50
2022/03/07 00:53:08;;;;;;;12.60;6.03;;;;;;;;;;5089020;28;20071;-49
2022/03/07 00:55:34;;;;;;;14.68;6.05;;;;;;;;;;5092801;28;20032;-50
2022/03/07 00:58:00;;;;;;;10.65;5.55;;;;;;;;;;5087286;28;20107;-48
2022/03/07 01:00:26;;;;;;;13.50;5.63;;;;;;;;;;5092495;28;20457;-50
2022/03/07 01:02:52;;;;;;;13.20;6.13;;;;;;;;;;5091980;28;20095;-48
2022/03/07 01:05:19;;;;;;;9.52;6.05;;;;;;;;;;5092948;28;20023;-49
2022/03/07 01:07:45;;;;;;;10.77;5.55;;;;;;;;;;5081017;28;20020;-52
2022/03/07 01:10:12;;;;;;;11.85;5.03;;;;;;;;;;5092696;28;20047;-54
2022/03/07 01:12:38;;;;;;;11.48;4.63;;;;;;;;;;5086744;28;20103;-51
2022/03/07 01:15:04;;;;;;;7.13;4.32;;;;;;;;;;5092067;28;20054;-53
2022/03/07 01:17:30;;;;;;;8.45;4.50;;;;;;;;;;5079597;28;20529;-48
2022/03/07 01:19:56;;;;;;;7.68;4.75;;;;;;;;;;5091881;28;20063;-52
2022/03/07 01:22:22;;;;;;;9.00;4.95;;;;;;;;;;5089094;28;20067;-53
2022/03/07 01:24:48;;;;;;;9.32;5.43;;;;;;;;;;5083844;28;20031;-50
2022/03/07 01:27:14;;;;;;;8.40;4.95;;;;;;;;;;5080597;28;20304;-49
2022/03/07 01:29:40;;;;;;;7.05;4.45;;;;;;;;;;5081600;28;20085;-52
2022/03/07 01:32:07;;;;;;;7.47;4.97;;;;;;;;;;5091810;28;20031;-48
2022/03/07 01:34:33;;;;;;;6.68;4.18;;;;;;;;;;5092295;28;20027;-48
2022/03/07 01:36:59;;;;;;;8.63;4.45;;;;;;;;;;5088859;28;20048;-52
2022/03/07 01:39:25;;;;;;;8.27;5.03;;;;;;;;;;5082259;28;20078;-53
2022/03/07 01:41:51;;;;;;;10.15;5.88;;;;;;;;;;5089704;28;20027;-51
2022/03/07 01:44:21;;;;;;;9.38;5.07;;;;;;;;;;5085751;28;20411;-54
2022/03/07 01:46:47;;;;;;;10.82;5.13;;;;;;;;;;5088716;28;20434;-52
2022/03/07 01:49:13;;;;;;;10.18;4.85;;;;;;;;;;5087663;28;20221;-51
2022/03/07 01:51:42;;;;;;;8.75;4.85;;;;;;;;;;5088085;28;20048;-48
2022/03/07 01:54:09;;;;;;;9.52;5.57;;;;;;;;;;5092185;28;20062;-50
2022/03/07 01:56:36;;;;;;;6.88;4.85;;;;;;;;;;5091731;28;20031;-49
2022/03/07 01:59:03;;;;;;;6.80;4.70;;;;;;;;;;5092092;28;20432;-51
2022/03/07 02:01:29;;;;;;;7.75;4.43;;;;;;;;;;5090565;28;20036;-53
2022/03/07 02:03:55;;;;;;;6.47;4.32;;;;;;;;;;5085344;28;20806;-48
2022/03/07 02:06:22;;;;;;;7.03;5.00;;;;;;;;;;5075880;28;20099;-50
2022/03/07 02:08:48;;;;;;;10.35;5.70;;;;;;;;;;5087846;28;20108;-53
2022/03/07 02:11:15;;;;;;;8.38;4.82;;;;;;;;;;5094939;28;20158;-49
2022/03/07 02:13:41;;;;;;;7.30;4.75;;;;;;;;;;5082145;28;20052;-51
2022/03/07 02:16:07;;;;;;;8.73;5.40;;;;;;;;;;5091781;28;20078;-51
2022/03/07 02:18:33;;;;;;;8.43;4.57;;;;;;;;;;5092704;28;20028;-48
2022/03/07 02:21:10;;;;;;;10.80;5.13;;;;;;;;;;5089466;28;20032;-50
2022/03/07 02:23:36;;;;;;;8.55;5.35;;;;;;;;;;5091428;28;20031;-50
2022/03/07 02:26:32;;;;;;;9.20;5.28;;;;;;;;;;5095315;28;20061;-50
2022/03/07 02:28:58;;;;;;;8.05;4.95;;;;;;;;;;5090749;28;20064;-52
2022/03/07 02:31:24;;;;;;;10.50;6.35;;;;;;;;;;5094923;28;20379;-48
2022/03/07 02:33:50;;;;;;;10.85;5.20;;;;;;;;;;5086462;28;20043;-51
2022/03/07 02:36:16;;;;;;;6.22;4.75;;;;;;;;;;5094390;28;20383;-48
2022/03/07 02:38:42;;;;;;;8.23;4.88;;;;;;;;;;5090585;28;20107;-47
2022/03/07 02:41:08;;;;;;;7.47;4.63;;;;;;;;;;5085574;28;20024;-48
2022/03/07 02:43:34;;;;;;;6.13;4.90;;;;;;;;;;5095012;28;20027;-48
2022/03/07 02:46:01;;;;;;;9.45;5.13;;;;;;;;;;5087388;28;20142;-48
2022/03/07 02:48:28;;;;;;;9.27;4.97;;;;;;;;;;5090997;28;20024;-48
2022/03/07 02:50:55;;;;;;;9.30;4.95;;;;;;;;;;5093693;28;20074;-49
2022/03/07 02:53:21;;;;;;;7.38;4.78;;;;;;;;;;5094218;28;20056;-52
2022/03/07 02:55:48;;;;;;;9.02;4.97;;;;;;;;;;5095091;28;20035;-48
2022/03/07 02:58:14;;;;;;;7.28;4.90;;;;;;;;;;5095256;28;20035;-52
2022/03/07 03:00:40;;;;;;;8.23;4.53;;;;;;;;;;5090774;28;20482;-50
2022/03/07 03:03:06;;;;;;;8.23;4.72;;;;;;;;;;5088800;28;20142;-53
2022/03/07 03:05:32;;;;;;;6.07;4.00;;;;;;;;;;5094604;28;20028;-49
2022/03/07 03:07:58;;;;;;;7.28;4.45;;;;;;;;;;5086517;28;20039;-48
2022/03/07 03:10:24;;;;;;;6.95;4.75;;;;;;;;;;5094818;28;20042;-50
2022/03/07 03:12:50;;;;;;;9.60;4.50;;;;;;;;;;5092290;28;20106;-50
2022/03/07 03:15:17;;;;;;;8.90;4.35;;;;;;;;;;5083698;28;20032;-49
2022/03/07 03:17:43;;;;;;;7.72;4.30;;;;;;;;;;5092558;28;20097;-48
2022/03/07 03:20:12;;;;;;;8.07;4.88;;;;;;;;;;5093204;28;20032;-48
2022/03/07 03:22:39;;;;;;;7.88;5.00;;;;;;;;;;5090443;28;20035;-48
2022/03/07 03:25:06;;;;;;;8.05;5.03;;;;;;;;;;5094547;28;20046;-49
2022/03/07 03:27:32;;;;;;;10.93;5.45;;;;;;;;;;5094367;28;20103;-48
2022/03/07 03:29:58;;;;;;;8.70;5.50;;;;;;;;;;5092121;28;20032;-53
2022/03/07 03:32:25;;;;;;;7.63;4.63;;;;;;;;;;5093381;28;20134;-52
2022/03/07 03:34:51;;;;;;;9.10;5.95;;;;;;;;;;5080024;28;20417;-53
2022/03/07 03:37:16;;;;;;;10.00;4.78;;;;;;;;;;5093966;28;20060;-51
2022/03/07 03:39:43;;;;;;;10.80;6.00;;;;;;;;;;5094178;28;20027;-51
2022/03/07 03:42:08;;;;;;;8.07;4.60;;;;;;;;;;5088148;28;20467;-50
2022/03/07 03:44:34;;;;;;;7.68;4.97;;;;;;;;;;5083270;28;20116;-52
2022/03/07 03:47:00;;;;;;;7.72;4.85;;;;;;;;;;5093822;28;20695;-51
2022/03/07 03:49:29;;;;;;;9.65;5.47;;;;;;;;;;5093604;28;20107;-53
2022/03/07 03:51:55;;;;;;;9.15;4.97;;;;;;;;;;5081913;28;20138;-48
2022/03/07 03:54:21;;;;;;;9.68;5.30;;;;;;;;;;5083985;28;20090;-50
2022/03/07 03:56:46;;;;;;;8.88;5.43;;;;;;;;;;5091318;28;20024;-49
2022/03/07 03:59:13;;;;;;;9.85;5.70;;;;;;;;;;5088541;28;20070;-49
2022/03/07 04:01:39;;;;;;;10.10;5.35;;;;;;;;;;5092754;28;20035;-53
2022/03/07 04:04:05;;;;;;;9.45;5.28;;;;;;;;;;5086659;28;20530;-54
2022/03/07 04:06:31;;;;;;;7.25;5.07;;;;;;;;;;5091993;28;20028;-48
2022/03/07 04:08:57;;;;;;;12.95;6.18;;;;;;;;;;5076565;28;20468;-54
2022/03/07 04:11:23;;;;;;;10.93;5.95;;;;;;;;;;5093197;28;20632;-50
2022/03/07 04:13:49;;;;;;;9.18;5.53;;;;;;;;;;5085121;28;20033;-50
2022/03/07 04:16:15;;;;;;;10.75;6.30;;;;;;;;;;5093240;28;20040;-48
2022/03/07 04:18:42;;;;;;;10.20;6.22;;;;;;;;;;5092819;28;20035;-50
2022/03/07 04:21:08;;;;;;;10.30;6.20;;;;;;;;;;5093293;28;20032;-48
2022/03/07 04:23:34;;;;;;;8.82;5.55;;;;;;;;;;5092867;28;20024;-49
2022/03/07 04:26:00;;;;;;;12.48;6.10;;;;;;;;;;5091673;28;20020;-48
2022/03/07 04:28:26;;;;;;;10.40;5.32;;;;;;;;;;5092566;28;20058;-49
2022/03/07 04:30:52;;;;;;;15.48;6.32;;;;;;;;;;5092436;28;20028;-53
2022/03/07 04:33:18;;;;;;;11.27;6.72;;;;;;;;;;5092105;28;20020;-54
2022/03/07 04:35:44;;;;;;;12.52;6.38;;;;;;;;;;5093048;28;20458;-50
2022/03/07 04:38:10;;;;;;;13.43;5.60;;;;;;;;;;5079561;28;20376;-51
2022/03/07 04:40:36;;;;;;;10.82;5.80;;;;;;;;;;5093137;28;20028;-52
2022/03/07 04:43:02;;;;;;;10.50;6.13;;;;;;;;;;5086765;28;20024;-52
2022/03/07 04:45:28;;;;;;;9.27;5.30;;;;;;;;;;5083371;28;20035;-49
2022/03/07 04:47:54;;;;;;;11.25;5.82;;;;;;;;;;5080429;28;20035;-48
2022/03/07 04:50:20;;;;;;;9.00;5.25;;;;;;;;;;5088042;28;20024;-51
2022/03/07 04:52:46;;;;;;;10.20;5.53;;;;;;;;;;5088172;28;20499;-49
2022/03/07 04:55:13;;;;;;;11.70;5.70;;;;;;;;;;5088507;28;20020;-50
2022/03/07 04:57:39;;;;;;;11.85;5.78;;;;;;;;;;5089645;28;20031;-49
2022/03/07 05:00:06;;;;;;;8.45;5.85;;;;;;;;;;5101146;28;20039;-49
2022/03/07 05:02:33;;;;;;;10.45;6.00;;;;;;;;;;5082113;28;20024;-48
2022/03/07 05:04:59;;;;;;;9.40;5.13;;;;;;;;;;5081703;28;20115;-48
2022/03/07 05:07:25;;;;;;;18.50;7.18;;;;;;;;;;5090013;28;20532;-49
2022/03/07 05:09:51;;;;;;;9.80;5.45;;;;;;;;;;5090812;28;20020;-49
2022/03/07 05:12:17;;;;;;;9.65;5.72;;;;;;;;;;5089457;28;20039;-53
2022/03/07 05:14:43;;;;;;;14.38;6.22;;;;;;;;;;5077636;28;20032;-53
2022/03/07 05:17:09;;;;;;;11.20;6.05;;;;;;;;;;5082495;28;20111;-48
2022/03/07 05:19:35;;;;;;;10.68;5.78;;;;;;;;;;5092107;28;20465;-53
2022/03/07 05:22:01;;;;;;;10.57;6.47;;;;;;;;;;5081213;28;20063;-54
2022/03/07 05:24:27;;;;;;;12.63;5.63;;;;;;;;;;5078832;28;20040;-50
2022/03/07 05:26:53;;;;;;;11.57;6.53;;;;;;;;;;5088322;28;20103;-49
2022/03/07 05:29:19;;;;;;;10.90;5.95;;;;;;;;;;5091356;28;20138;-51
2022/03/07 05:31:45;;;;;;;9.50;5.50;;;;;;;;;;5080164;28;20025;-50
2022/03/07 05:34:11;;;;;;;11.52;6.57;;;;;;;;;;5085888;28;20073;-48
2022/03/07 05:36:37;;;;;;;10.73;6.10;;;;;;;;;;5091533;28;20095;-49
2022/03/07 05:39:04;;;;;;;13.20;6.97;;;;;;;;;;5086562;28;20027;-50
2022/03/07 05:41:30;;;;;;;12.70;5.55;;;;;;;;;;5083678;28;20024;-48
2022/03/07 05:43:56;;;;;;;10.73;5.85;;;;;;;;;;5087136;28;20174;-51
2022/03/07 05:46:22;;;;;;;9.02;5.18;;;;;;;;;;5087914;28;20100;-52
2022/03/07 05:48:48;;;;;;;11.15;5.80;;;;;;;;;;5096019;28;20522;-48
2022/03/07 05:51:21;;;;;;;9.98;5.68;;;;;;;;;;5085494;28;20035;-52
2022/03/07 05:53:46;;;;;;;10.77;5.60;;;;;;;;;;5092938;28;20040;-48
2022/03/07 05:56:12;;;;;;;11.07;6.10;;;;;;;;;;5090403;28;20032;-51
2022/03/07 05:58:38;;;;;;;12.40;6.28;;;;;;;;;;5088059;28;20086;-48
2022/03/07 06:01:04;;;;;;;9.52;5.60;;;;;;;;;;5090683;28;20029;-47
2022/03/07 06:03:30;;;;;;;10.80;6.50;;;;;;;;;;5077614;28;20115;-52
2022/03/07 06:05:56;;;;;;;10.25;6.25;;;;;;;;;;5084085;28;20036;-53
2022/03/07 06:08:22;;;;;;;10.98;5.68;;;;;;;;;;5089832;28;20103;-52
2022/03/07 06:10:49;;;;;;;11.48;6.25;;;;;;;;;;5082696;28;20021;-50
2022/03/07 06:13:15;;;;;;;12.50;6.53;;;;;;;;;;5091442;28;20058;-50
2022/03/07 06:15:43;;;;;;;10.45;6.32;;;;;;;;;;5088086;28;20028;-48
2022/03/07 06:18:10;;;;;;;10.32;6.40;;;;;;;;;;5087480;28;20028;-51
2022/03/07 06:20:36;;;;;;;13.23;7.28;;;;;;;;;;5082147;28;20054;-53
2022/03/07 06:23:02;;;;;;;11.10;6.30;;;;;;;;;;5083933;28;20111;-48
2022/03/07 06:25:29;;;;;;;9.23;5.97;;;;;;;;;;5079105;28;20021;-50
2022/03/07 06:27:55;;;;;;;13.40;6.75;;;;;;;;;;5087395;28;20052;-50
2022/03/07 06:30:21;;;;;;;9.80;6.15;;;;;;;;;;5093858;28;20106;-48
2022/03/07 06:32:47;;;;;;;13.07;7.05;;;;;;;;;;5092564;28;20036;-53
2022/03/07 06:35:13;;;;;;;12.90;6.72;;;;;;;;;;5086421;28;20142;-49
2022/03/07 06:37:45;;;;;;;14.73;7.55;;;;;;;;;;5090758;28;20027;-48
2022/03/07 06:40:11;;;;;;;12.13;7.05;;;;;;;;;;5075471;28;20481;-48
2022/03/07 06:42:37;;;;;;;13.48;6.70;;;;;;;;;;5085772;28;20028;-49
2022/03/07 06:45:03;;;;;;;14.63;7.85;;;;;;;;;;5085742;28;20507;-48
2022/03/07 06:47:29;;;;;;;13.93;7.18;;;;;;;;;;5085461;28;20030;-48
2022/03/07 06:49:57;;;;;;;11.68;6.35;;;;;;;;;;5088124;28;20028;-48
2022/03/07 06:52:23;;;;;;;14.43;7.97;;;;;;;;;;5077351;28;20055;-50
2022/03/07 06:54:50;;;;;;;13.82;7.60;;;;;;;;;;5089041;28;20031;-53
2022/03/07 06:57:16;;;;;;;13.20;7.07;;;;;;;;;;5088455;28;20024;-51
2022/03/07 06:59:42;;;;;;;16.50;7.88;;;;;;;;;;5084828;28;20464;-53
2022/03/07 07:02:08;;;;;;;14.52;7.65;;;;;;;;;;5079039;28;20132;-50
2022/03/07 07:04:35;;;;;;;14.10;8.20;;;;;;;;;;5081144;28;20399;-54
2022/03/07 07:07:01;;;;;;;15.38;8.40;;;;;;;;;;5086664;28;20028;-48
2022/03/07 07:09:27;;;;;;;16.15;7.78;;;;;;;;;;5085176;28;20036;-48
2022/03/07 07:11:53;;;;;;;13.30;7.82;;;;;;;;;;5094338;28;20024;-48
2022/03/07 07:14:19;;;;;;;14.20;7.47;;;;;;;;;;5083709;28;20028;-49
2022/03/07 07:16:45;;;;;;;15.45;8.23;;;;;;;;;;5076237;28;20460;-48
2022/03/07 07:19:10;;;;;;;14.48;7.88;;;;;;;;;;5089216;28;20024;-50
2022/03/07 07:21:36;;;;;;;14.65;7.85;;;;;;;;;;5082699;28;20052;-50
2022/03/07 07:24:03;;;;;;;20.75;9.20;;;;;;;;;;5082711;28;20078;-48
2022/03/07 07:26:28;;;;;;;15.25;7.85;;;;;;;;;;5088135;28;20051;-48
2022/03/07 07:28:54;;;;;;;16.85;9.30;;;;;;;;;;5091130;28;20058;-50
2022/03/07 07:31:20;;;;;;;21.38;8.63;;;;;;;;;;5080000;28;20032;-50
2022/03/07 07:33:46;;;;;;;19.73;8.63;;;;;;;;;;5084673;28;20043;-50
2022/03/07 07:36:12;;;;;;;14.75;8.60;;;;;;;;;;5085631;28;20035;-54
2022/03/07 07:38:38;;;;;;;16.25;8.32;;;;;;;;;;5087540;28;20032;-51
2022/03/07 07:41:04;;;;;;;14.90;8.85;;;;;;;;;;5081656;28;20032;-50
2022/03/07 07:43:30;;;;;;;19.52;8.80;;;;;;;;;;5086947;28;20020;-53
2022/03/07 07:45:56;;;;;;;16.65;8.88;;;;;;;;;;5088366;28;20028;-52
2022/03/07 07:48:22;;;;;;;17.88;8.93;;;;;;;;;;5080056;28;20663;-52
2022/03/07 07:50:48;;;;;;;18.98;9.23;;;;;;;;;;5082146;28;20032;-50
2022/03/07 07:53:14;;;;;;;14.40;8.43;;;;;;;;;;5080304;28;20068;-49
2022/03/07 07:55:40;;;;;;;17.75;9.00;;;;;;;;;;5088548;28;20028;-49
2022/03/07 07:58:06;;;;;;;14.55;7.57;;;;;;;;;;5084120;28;20054;-51
2022/03/07 08:00:32;;;;;;;16.70;8.20;;;;;;;;;;5083341;28;20052;-51
2022/03/07 08:02:58;;;;;;;18.67;8.70;;;;;;;;;;5090295;28;20464;-52
2022/03/07 08:05:24;;;;;;;22.63;8.63;;;;;;;;;;5078270;28;20020;-50
2022/03/07 08:07:50;;;;;;;16.17;9.80;;;;;;;;;;5076571;28;20020;-54
2022/03/07 08:10:17;;;;;;;14.77;9.18;;;;;;;;;;5077297;28;20027;-52
2022/03/07 08:12:44;;;;;;;19.58;9.23;;;;;;;;;;5088871;28;20036;-48
2022/03/07 08:15:13;;;;;;;19.05;10.05;;;;;;;;;;5083266;28;20035;-50
2022/03/07 08:17:46;;;;;;;18.63;9.35;;;;;;;;;;5090423;28;20039;-49
2022/03/07 08:20:12;;;;;;;18.70;10.48;;;;;;;;;;5084509;28;20423;-48
2022/03/07 08:22:38;;;;;;;20.88;9.25;;;;;;;;;;5079875;28;20534;-49
2022/03/07 08:25:04;;;;;;;15.77;8.48;;;;;;;;;;5083705;28;20025;-53
2022/03/07 08:27:31;;;;;;;16.20;8.02;;;;;;;;;;5087762;28;20093;-50
2022/03/07 08:29:57;;;;;;;18.95;7.38;;;;;;;;;;5082610;28;20032;-49
2022/03/07 08:32:23;;;;;;;14.10;7.03;;;;;;;;;;5082556;28;20367;-52
2022/03/07 08:34:49;;;;;;;17.65;7.32;;;;;;;;;;5081341;28;20032;-53
2022/03/07 08:37:15;;;;;;;12.48;7.00;;;;;;;;;;5082089;28;20035;-50
2022/03/07 08:39:41;;;;;;;14.93;7.97;;;;;;;;;;5077748;28;20032;-49
2022/03/07 08:42:07;;;;;;;15.65;7.85;;;;;;;;;;5092714;28;20024;-51
2022/03/07 08:44:33;;;;;;;12.43;7.70;;;;;;;;;;5082307;28;20059;-50
2022/03/07 08:46:59;;;;;;;13.48;7.32;;;;;;;;;;5084409;28;20028;-52
2022/03/07 08:49:25;;;;;;;11.98;6.63;;;;;;;;;;5082208;28;20028;-48
2022/03/07 08:51:51;;;;;;;18.58;7.15;;;;;;;;;;5079574;28;20040;-49
2022/03/07 08:54:17;;;;;;;16.52;6.93;;;;;;;;;;5080999;28;20027;-52
2022/03/07 08:56:44;;;;;;;15.18;6.40;;;;;;;;;;5084071;28;20427;-48
2022/03/07 08:59:10;;;;;;;11.50;6.28;;;;;;;;;;5084045;28;20028;-50
2022/03/07 09:01:36;;;;;;;11.88;6.75;;;;;;;;;;5077474;28;20024;-50
2022/03/07 09:04:02;;;;;;;12.27;6.30;;;;;;;;;;5087650;28;20078;-52
2022/03/07 09:06:29;;;;;;;15.25;6.57;;;;;;;;;;5082599;28;20491;-53
2022/03/07 09:08:55;;;;;;;17.65;6.00;;;;;;;;;;5086424;28;20103;-48
2022/03/07 09:11:21;;;;;;;11.60;5.15;;;;;;;;;;5076819;28;20020;-49
2022/03/07 09:13:47;;;;;;;11.80;6.00;;;;;;;;;;5088414;28;20027;-49
2022/03/07 09:16:14;;;;;;;8.02;4.82;;;;;;;;;;5092603;28;20063;-50
2022/03/07 09:18:40;;;;;;;9.65;5.47;;;;;;;;;;5089854;28;20070;-55
2022/03/07 09:21:06;;;;;;;8.50;4.40;;;;;;;;;;5079451;28;20036;-56
2022/03/07 09:23:37;;;;;;;7.95;4.65;;;;;;;;;;5078376;28;20032;-52
2022/03/07 09:26:03;;;;;;;9.13;5.38;;;;;;;;;;5083510;28;20035;-53
2022/03/07 09:28:30;;;;;;;10.00;4.97;;;;;;;;;;5083815;28;20028;-49
2022/03/07 09:30:55;;;;;;;15.23;5.00;;;;;;;;;;5082764;28;20476;-53
2022/03/07 09:33:22;;;;;;;9.02;5.20;;;;;;;;;;5090971;28;20025;-54
2022/03/07 09:35:48;;;;;;;8.68;5.15;;;;;;;;;;5081744;28;20103;-52
2022/03/07 09:38:16;;;;;;;16.77;5.57;;;;;;;;;;5088354;28;20116;-52
2022/03/07 09:40:42;;;;;;;11.60;5.88;;;;;;;;;;5083706;28;20032;-50
2022/03/07 09:43:09;;;;;;;12.23;6.55;;;;;;;;;;5089554;28;20039;-51
2022/03/07 09:45:35;;;;;;;13.10;6.32;;;;;;;;;;5075213;28;20031;-55
2022/03/07 09:48:01;;;;;;;11.13;6.18;;;;;;;;;;5089398;28;20371;-52
2022/03/07 09:50:27;;;;;;;10.20;5.40;;;;;;;;;;5085343;28;20369;-53
2022/03/07 09:52:56;;;;;;;8.18;4.60;;;;;;;;;;5087957;28;20398;-50
2022/03/07 09:55:23;;;;;;;9.93;5.35;;;;;;;;;;5079471;28;20067;-52
2022/03/07 09:57:49;;;;;;;10.90;5.30;;;;;;;;;;5089549;28;20060;-50
2022/03/07 10:00:16;;;;;;;9.43;5.38;;;;;;;;;;5081658;28;20046;-52
2022/03/07 10:02:52;;;;;;;7.85;5.40;;;;;;;;;;5076698;28;20021;-50
2022/03/07 10:05:18;;;;;;;10.07;5.32;;;;;;;;;;5082843;28;20052;-52
2022/03/07 10:07:45;;;;;;;7.30;4.22;;;;;;;;;;5089442;28;20029;-52
2022/03/07 10:10:11;;;;;;;10.93;5.57;;;;;;;;;;5078913;28;20031;-52
2022/03/07 10:12:44;;;;;;;10.77;5.30;;;;;;;;;;5084615;28;20059;-54
2022/03/07 10:15:14;;;;;;;7.65;3.78;;;;;;;;;;5078814;28;20024;-55
2022/03/07 10:17:41;;;;;;;8.20;4.38;;;;;;;;;;5076264;28;20039;-54
2022/03/07 10:20:08;;;;;;;8.02;4.25;;;;;;;;;;5085777;28;20040;-53
2022/03/07 10:22:34;;;;;;;6.63;3.80;;;;;;;;;;5077059;28;20423;-54
2022/03/07 10:25:05;;;;;;;5.75;3.55;;;;;;;;;;5081693;28;20023;-53
2022/03/07 10:27:33;;;;;;;7.68;4.40;;;;;;;;;;5080401;28;20025;-50
2022/03/07 10:29:59;;;;;;;6.72;4.07;;;;;;;;;;5085557;28;20110;-52
2022/03/07 10:32:25;;;;;;;6.70;4.10;;;;;;;;;;5084085;28;20024;-54
2022/03/07 10:34:51;;;;;;;7.03;3.90;;;;;;;;;;5080646;28;20035;-55
2022/03/07 10:37:17;;;;;;;7.05;3.50;;;;;;;;;;5082321;28;20036;-53
2022/03/07 10:39:53;;;;;;;4.63;3.03;;;;;;;;;;5090172;28;20056;-49
2022/03/07 10:42:20;;;;;;;6.63;3.22;;;;;;;;;;5081103;28;20093;-49
2022/03/07 10:44:46;;;;;;;6.03;3.35;;;;;;;;;;5079280;28;20032;-50
2022/03/07 10:47:14;;;;;;;7.10;3.30;;;;;;;;;;5078125;28;21624;-52
2022/03/07 10:49:48;;;;;;;6.25;3.50;;;;;;;;;;5086173;28;20094;-55
2022/03/07 10:52:14;;;;;;;;;;;;;;;;;;5090244;28;20056;-52
2022/03/07 10:54:40;;;;;;;6.72;3.58;;;;;;;;;;5088821;28;19909;-51
2022/03/07 10:57:07;;;;;;;7.43;3.85;;;;;;;;;;5084392;28;20031;-54
2022/03/07 10:59:34;;;;;;;6.40;3.22;;;;;;;;;;5085056;28;20111;-51
2022/03/07 11:02:01;;;;;;;5.80;3.45;;;;;;;;;;5085853;28;20110;-50
2022/03/07 11:04:27;;;;;;;5.45;3.08;;;;;;;;;;5088144;28;20067;-51
2022/03/07 11:06:53;;;;;;;4.72;3.00;;;;;;;;;;5086158;28;20028;-53
2022/03/07 11:09:20;;;;;;;4.85;2.95;;;;;;;;;;5088865;28;20042;-50
2022/03/07 11:11:46;;;;;;;5.28;3.40;;;;;;;;;;5088381;28;20067;-52
2022/03/07 11:14:13;;;;;;;4.78;3.10;;;;;;;;;;5077054;28;20032;-55
2022/03/07 11:16:40;;;;;;;7.07;3.53;;;;;;;;;;5086498;28;20039;-56
2022/03/07 11:19:07;;;;;;;6.55;3.38;;;;;;;;;;5081893;28;20044;-56
2022/03/07 11:21:33;;;;;;;4.80;2.78;;;;;;;;;;5080091;28;20028;-51
2022/03/07 11:23:59;;;;;;;3.88;2.75;;;;;;;;;;5090024;28;20020;-51
2022/03/07 11:26:26;;;;;;;5.05;2.92;;;;;;;;;;5086090;28;20107;-53
2022/03/07 11:28:52;;;;;;;5.22;2.95;;;;;;;;;;5084372;28;20020;-53
2022/03/07 11:31:22;;;;;;;4.30;2.78;;;;;;;;;;5086750;28;20098;-54
2022/03/07 11:33:49;;;;;;;5.65;3.13;;;;;;;;;;5082808;28;20024;-54
2022/03/07 11:36:17;;;;;;;5.53;3.15;;;;;;;;;;5087183;28;20040;-50
2022/03/07 11:38:50;;;;;;;3.95;2.35;;;;;;;;;;5082151;28;20103;-51
2022/03/07 11:41:22;;;;;;;5.25;3.05;;;;;;;;;;5080742;28;20563;-53
2022/03/07 11:44:00;;;;;;;4.90;2.90;;;;;;;;;;5083561;28;20023;-54
2022/03/07 11:46:30;;;;;;;3.67;2.60;;;;;;;;;;5082622;28;20043;-55
2022/03/07 11:48:56;;;;;;;5.53;2.95;;;;;;;;;;5082034;28;20044;-53
2022/03/07 11:51:23;;;;;;;5.80;2.83;;;;;;;;;;5076581;28;20059;-49
2022/03/07 11:53:50;;;;;;;3.88;2.33;;;;;;;;;;5087687;28;20111;-52
2022/03/07 11:56:17;;;;;;;5.28;2.63;;;;;;;;;;5082759;28;20472;-49
2022/03/07 11:58:50;;;;;;;4.28;2.22;;;;;;;;;;5083287;28;20048;-52
2022/03/07 12:01:16;;;;;;;;;;;;;;;;;;5084442;28;20025;-51
2022/03/07 12:03:42;;;;;;;3.70;2.00;;;;;;;;;;5080047;28;19982;-48
2022/03/07 12:06:14;;;;;;;3.55;2.13;;;;;;;;;;5082045;28;20048;-48
2022/03/07 12:08:47;;;;;;;4.40;1.80;;;;;;;;;;5075865;28;20047;-49
2022/03/07 12:11:30;;;;;;;3.88;1.90;;;;;;;;;;5076499;28;20056;-55
2022/03/07 12:14:02;;;;;;;2.10;1.43;;;;;;;;;;5081941;28;20115;-50
2022/03/07 12:16:29;;;;;;;2.78;1.60;;;;;;;;;;5088594;28;20032;-50
2022/03/07 12:19:06;;;;;;;3.20;1.73;;;;;;;;;;5084494;28;20050;-52
2022/03/07 12:21:32;;;;;;;1.75;1.30;;;;;;;;;;5087228;28;20032;-50
2022/03/07 12:23:58;;;;;;;2.40;1.30;;;;;;;;;;5078908;28;20043;-50
2022/03/07 12:26:24;;;;;;;2.65;1.42;;;;;;;;;;5091190;28;20049;-50
2022/03/07 12:28:50;;;;;;;2.17;1.40;;;;;;;;;;5085630;28;20028;-54
2022/03/07 12:31:16;;;;;;;1.83;1.35;;;;;;;;;;5082053;28;20078;-55
2022/03/07 12:33:44;;;;;;;1.85;1.30;;;;;;;;;;5079935;28;20028;-53
2022/03/07 12:36:12;;;;;;;4.05;1.42;;;;;;;;;;5081366;28;20024;-55
2022/03/07 12:38:57;;;;;;;2.75;1.50;;;;;;;;;;5090531;28;20043;-54
2022/03/07 12:41:30;;;;;;;3.28;1.50;;;;;;;;;;5086578;28;20040;-55
2022/03/07 12:43:56;;;;;;;3.33;1.50;;;;;;;;;;5080912;28;20043;-55
2022/03/07 12:46:22;;;;;;;2.33;1.52;;;;;;;;;;5083159;28;20013;-55
2022/03/07 12:48:48;;;;;;;3.40;1.38;;;;;;;;;;5078914;28;20104;-54
2022/03/07 12:51:19;;;;;;;2.83;1.77;;;;;;;;;;5075955;28;20024;-53
2022/03/07 12:53:55;;;;;;;3.72;1.50;;;;;;;;;;5086574;28;20032;-55
2022/03/07 12:56:22;;;;;;;3.70;2.05;;;;;;;;;;5080456;28;20070;-51
2022/03/07 12:58:56;;;;;;;2.70;1.70;;;;;;;;;;5080817;28;20020;-52
2022/03/07 13:01:23;;;;;;;3.20;1.83;;;;;;;;;;5080831;28;20036;-50
2022/03/07 13:03:52;;;;;;;2.45;1.70;;;;;;;;;;5088066;28;20114;-56
2022/03/07 13:06:18;;;;;;;4.28;2.10;;;;;;;;;;5089312;28;20055;-51
2022/03/07 13:08:45;;;;;;;3.63;1.85;;;;;;;;;;5086987;28;20058;-55
2022/03/07 13:11:11;;;;;;;3.85;1.75;;;;;;;;;;5089811;28;20028;-50
2022/03/07 13:13:41;;;;;;;3.03;1.58;;;;;;;;;;5087376;28;20032;-51
2022/03/07 13:16:07;;;;;;;2.45;1.30;;;;;;;;;;5084905;28;20024;-47
2022/03/07 13:18:33;;;;;;;3.25;1.10;;;;;;;;;;5081524;28;20356;-49
2022/03/07 13:20:59;;;;;;;2.83;1.10;;;;;;;;;;5086389;28;20113;-48
2022/03/07 13:23:29;;;;;;;2.97;1.25;;;;;;;;;;5085890;28;20024;-50
2022/03/07 13:25:55;;;;;;;2.65;0.93;;;;;;;;;;5083697;28;20024;-51
2022/03/07 13:28:30;;;;;;;2.45;0.80;;;;;;;;;;5088195;28;20028;-52
2022/03/07 13:30:57;;;;;;;3.08;1.10;;;;;;;;;;5090916;28;20028;-54
2022/03/07 13:33:31;;;;;;;2.38;1.13;;;;;;;;;;5081709;28;20035;-53
2022/03/07 13:35:57;;;;;;;2.53;0.93;;;;;;;;;;5080254;28;20577;-53
2022/03/07 13:38:23;;;;;;;4.85;1.13;;;;;;;;;;5090942;28;20024;-50
2022/03/07 13:40:49;;;;;;;1.50;0.80;;;;;;;;;;5084031;28;20487;-52
2022/03/07 13:43:15;;;;;;;1.33;0.70;;;;;;;;;;5083475;28;20125;-49
2022/03/07 13:45:42;;;;;;;3.40;1.63;;;;;;;;;;5081174;28;20033;-50
2022/03/07 13:48:10;;;;;;;2.08;1.05;;;;;;;;;;5088083;28;20043;-52
2022/03/07 13:50:37;;;;;;;1.67;0.90;;;;;;;;;;5086839;28;20028;-52
2022/03/07 13:53:03;;;;;;;2.80;0.90;;;;;;;;;;5079284;28;20040;-52
2022/03/07 13:55:32;;;;;;;1.83;0.60;;;;;;;;;;5076896;28;20483;-49
2022/03/07 13:58:00;;;;;;;4.13;0.50;;;;;;;;;;5078084;28;20109;-52
2022/03/07 14:00:27;;;;;;;0.90;0.30;;;;;;;;;;5073000;28;20028;-55
2022/03/07 14:02:57;;;;;;;1.38;0.50;;;;;;;;;;5076683;28;20048;-47
2022/03/07 14:05:23;;;;;;;1.90;0.50;;;;;;;;;;5082201;28;20753;-47
2022/03/07 14:07:55;;;;;;;0.93;0.50;;;;;;;;;;5088326;28;20035;-49
2022/03/07 14:10:22;;;;;;;0.80;0.40;;;;;;;;;;5090481;28;20028;-49
2022/03/07 14:12:52;;;;;;;0.77;0.40;;;;;;;;;;5092291;28;20039;-50
2022/03/07 14:15:23;;;;;;;1.17;0.30;;;;;;;;;;5078170;28;20428;-54
2022/03/07 14:17:55;;;;;;;1.13;0.45;;;;;;;;;;5093692;28;20039;-53
2022/03/07 14:20:21;;;;;;;1.08;0.30;;;;;;;;;;5086206;28;20026;-51
2022/03/07 14:22:47;;;;;;;0.60;0.35;;;;;;;;;;5086262;28;20032;-51
2022/03/07 14:25:13;;;;;;;1.13;0.40;;;;;;;;;;5084430;28;20024;-53
2022/03/07 14:27:39;;;;;;;3.05;0.38;;;;;;;;;;5088965;28;20110;-47
2022/03/07 14:30:06;;;;;;;1.85;0.40;;;;;;;;;;5084324;28;20032;-50
2022/03/07 14:32:32;;;;;;;3.33;0.47;;;;;;;;;;5089612;28;20037;-52
2022/03/07 14:34:58;;;;;;;0.43;0.22;;;;;;;;;;5086800;28;20024;-51
2022/03/07 14:37:25;;;;;;;1.55;0.55;;;;;;;;;;5090718;28;20756;-54